ěÝzenÝ letovÚho provozu ╚eskÚ republiky
Letiste: LKNA Aktualizace: 21.10.2021 11:44:29  UTC
 METAR LKNA 21.10. 11:30 ...
METAR LKNA 211130Z 26025G39KT CAVOK 17/03 Q1006 NOSIG RMK BLU BLU=
 TAF LKNA 21.10. 05:00 AMD
TAF AMD LKNA 210500Z 2106/2206 20010KT 9999 SCT040      TEMPO 2106/2109 3000 NSC      PROB30 TEMPO 2107/2109 7000 RA BKN020      BECMG 2112/2114 27020G45KT      BECMG 2115/2117 CAVOK=
 WARNING LKNA 21.10. 11:42 ...
LKNA AD WRNG 1 VALID 211145/211745 SFC WSPD MAX OVR 40KT FCST INTSF=